Accueil
METAR-TAF:

METAR-TAF

Aéroports :

Aéroport Albert-Picardie

Albert, France

latitude: 49-58-21N, longitude: 002-41-29E, altitude: 111 m

Observation

Le bulletin a été fait il y a 15 minutes, à 15:00 UTC
Vent 20 kt de ouest
Température 17°C
Humidité 55%
Pression 1015 hPa
Visibilité 10 km ou plus
Quelques nuages à une hauteur de 4300 ft
Nuages épars à une hauteur de 6200 ft

METAR: LFAQ 211500Z AUTO 26020KT 9999 FEW043 SCT062 17/08 Q1015 BECMG 27017G27KT

Heure: 17:15 (15:15 UTC)

Prévision

Le bulletin a été fait il y a 1 heure et 15 minutes, à 14:00 UTC
Prévision valable du 21 à 15 UTC au 21 à 24 UTC
Vent 17 kt de ouest avec des rafales jusqu'à 27 kt
Visibilité 10 km ou plus
Nuages épars à une hauteur de 4000 ft
Evoluant progressivement
du 21 à 17 UTC au 21 à 20 UTC
Vent 7 kt de ouest/sud-ouest

TAF: LFAQ 211400Z 2115/2124 27017G27KT 9999 SCT040 BECMG 2117/2120 25007KT

Observations et prévisions météorologiques de plus de 4000 aéroports (messages METAR et TAF).

Les stations disponibles sont représentées par des disques jaunes et rouges sur la carte.

Passer la souris dessus pour voir le nom de la station.

Cliquer dessus pour voir les observations et prévisions météorologiques.

Pour changer de carte: cliquez sur les boutons verts avec une croix noire pour zoomer, sur le bouton vert avec un tiret pour effectuer un zoom arrière, ou sur les flèches vertes pour les cartes adjacentes.


METAR-TAF: